createdAt,value
2023-04-17T00:02:00.569Z,100748.16
2023-04-17T00:04:32.308Z,100750.04
2023-04-17T00:07:03.679Z,100753.27
2023-04-17T00:09:34.390Z,100748.51
2023-04-17T00:12:05.735Z,100745.94
2023-04-17T00:14:36.492Z,100745.09
2023-04-17T00:17:07.210Z,100745.42
2023-04-17T00:19:37.908Z,100747.30
2023-04-17T00:22:08.600Z,100745.27
2023-04-17T00:24:39.673Z,100747.84
2023-04-17T00:27:11.156Z,100742.89
2023-04-17T00:29:42.071Z,100743.39
2023-04-17T00:32:13.223Z,100748.84
2023-04-17T00:34:44.256Z,100747.48
2023-04-17T00:37:15.134Z,100746.28
2023-04-17T00:39:46.077Z,100750.89
2023-04-17T00:42:17.096Z,100747.82
2023-04-17T00:44:48.328Z,100754.81
2023-04-17T00:47:22.492Z,100755.31
2023-04-17T00:49:53.529Z,100759.06
2023-04-17T00:52:30.112Z,100753.75
2023-04-17T00:55:01.296Z,100754.78
2023-04-17T00:57:32.347Z,100755.63
2023-04-17T01:00:03.161Z,100760.04
2023-04-17T01:02:34.261Z,100760.55
2023-04-17T01:05:05.820Z,100764.13
2023-04-17T01:07:37.647Z,100763.95
2023-04-17T01:10:10.477Z,100766.66
2023-04-17T01:12:46.484Z,100771.95
2023-04-17T01:15:17.530Z,100769.40
2023-04-17T01:17:48.276Z,100774.02
2023-04-17T01:20:19.712Z,100776.05
2023-04-17T01:22:53.109Z,100769.24
2023-04-17T01:25:24.055Z,100764.80
2023-04-17T01:27:55.095Z,100763.77
2023-04-17T01:30:25.885Z,100767.35
2023-04-17T01:33:09.045Z,100767.17
2023-04-17T01:35:39.910Z,100771.80
2023-04-17T01:38:10.619Z,100770.60
2023-04-17T01:40:41.491Z,100770.09
2023-04-17T01:43:12.237Z,100767.02
2023-04-17T01:45:42.945Z,100768.39
2023-04-17T01:48:13.634Z,100769.25
2023-04-17T01:50:44.348Z,100773.67
2023-04-17T01:53:15.000Z,100778.45
2023-04-17T01:55:45.838Z,100774.70
2023-04-17T01:58:16.659Z,100771.79
2023-04-17T02:00:49.825Z,100779.46
2023-04-17T02:03:20.754Z,100771.29
2023-04-17T02:05:52.143Z,100773.50
2023-04-17T02:08:23.045Z,100777.44
2023-04-17T02:10:54.069Z,100781.02
2023-04-17T02:13:24.705Z,100777.44
2023-04-17T02:15:55.844Z,100774.73
2023-04-17T02:18:26.653Z,100776.95
2023-04-17T02:20:57.360Z,100778.98
2023-04-17T02:23:28.073Z,100786.33
2023-04-17T02:25:59.260Z,100777.77
2023-04-17T02:28:29.949Z,100783.23
2023-04-17T02:31:00.744Z,100784.95
2023-04-17T02:33:31.509Z,100781.36
2023-04-17T02:36:02.381Z,100779.14
2023-04-17T02:38:39.448Z,100786.80
2023-04-17T02:41:10.269Z,100784.77
2023-04-17T02:43:41.290Z,100783.71
2023-04-17T02:46:13.998Z,100784.39
2023-04-17T02:48:44.724Z,100791.36
2023-04-17T02:51:15.449Z,100794.75
2023-04-17T02:53:46.188Z,100792.20
2023-04-17T02:56:16.915Z,100792.18
2023-04-17T02:58:47.683Z,100793.04
2023-04-17T03:01:18.405Z,100790.63
2023-04-17T03:03:49.861Z,100792.49
2023-04-17T03:06:21.703Z,100793.14
2023-04-17T03:08:52.537Z,100793.65
2023-04-17T03:11:23.384Z,100798.91
2023-04-17T03:13:54.144Z,100801.79
2023-04-17T03:16:26.059Z,100806.20
2023-04-17T03:18:57.244Z,100803.65
2023-04-17T03:21:28.083Z,100807.57
2023-04-17T03:23:58.890Z,100809.44
2023-04-17T03:26:29.564Z,100813.52
2023-04-17T03:29:01.464Z,100815.21
2023-04-17T03:31:32.364Z,100815.91
2023-04-17T03:34:03.669Z,100815.73
2023-04-17T03:36:34.607Z,100817.29
2023-04-17T03:39:05.392Z,100813.89
2023-04-17T03:41:36.729Z,100816.09
2023-04-17T03:44:08.866Z,100818.33
2023-04-17T03:46:40.330Z,100817.48
2023-04-17T03:49:11.762Z,100817.48
2023-04-17T03:51:43.654Z,100822.09
2023-04-17T03:54:19.183Z,100828.60
2023-04-17T03:56:50.559Z,100823.32
2023-04-17T03:59:21.514Z,100824.88
2023-04-17T04:01:54.298Z,100830.69
2023-04-17T04:04:26.978Z,100835.13
2023-04-17T04:07:03.855Z,100838.22
2023-04-17T04:09:34.722Z,100839.27
2023-04-17T04:12:07.130Z,100838.77
2023-04-17T04:14:42.785Z,100842.36
2023-04-17T04:17:13.946Z,100847.14
2023-04-17T04:19:46.160Z,100853.65
2023-04-17T04:22:18.890Z,100852.27
2023-04-17T04:24:54.768Z,100857.22
2023-04-17T04:27:35.648Z,100860.30
2023-04-17T04:30:10.507Z,100859.44
2023-04-17T04:32:47.680Z,100864.39
2023-04-17T04:35:19.158Z,100866.08
2023-04-17T04:38:02.322Z,100866.58
2023-04-17T04:40:38.307Z,100866.77
2023-04-17T04:43:14.205Z,100868.31
2023-04-17T04:45:47.271Z,100869.53
2023-04-17T04:48:18.685Z,100875.67
2023-04-17T04:50:50.329Z,100877.73
2023-04-17T04:53:22.645Z,100877.90
2023-04-17T04:55:58.661Z,100883.20
2023-04-17T04:58:33.141Z,100884.08
2023-04-17T05:01:06.996Z,100888.17
2023-04-17T05:03:46.798Z,100881.37
2023-04-17T05:06:23.018Z,100882.08
2023-04-17T05:08:58.308Z,100877.50
2023-04-17T05:11:29.811Z,100878.70
2023-04-17T05:14:02.903Z,100877.02
2023-04-17T05:16:35.787Z,100881.13
2023-04-17T05:19:06.981Z,100879.11
2023-04-17T05:22:11.535Z,100880.67
2023-04-17T05:24:52.154Z,100881.89
2023-04-17T05:27:23.005Z,100883.08
2023-04-17T05:29:53.871Z,100888.55
2023-04-17T05:32:24.937Z,100890.09
2023-04-17T05:35:03.042Z,100887.71
2023-04-17T05:37:34.222Z,100888.41
2023-04-17T05:40:07.392Z,100890.81
2023-04-17T05:42:38.239Z,100890.99
2023-04-17T05:45:13.500Z,100891.70
2023-04-17T05:47:46.920Z,100892.91
2023-04-17T05:50:18.926Z,100897.54
2023-04-17T05:52:50.149Z,100899.94
2023-04-17T05:55:24.393Z,100894.83
2023-04-17T05:57:58.377Z,100890.41
2023-04-17T06:00:31.300Z,100886.67
2023-04-17T06:03:12.148Z,100881.06
2023-04-17T06:05:44.187Z,100879.70
2023-04-17T06:08:15.075Z,100890.65
2023-04-17T06:10:48.444Z,100901.80
2023-04-17T06:13:19.560Z,100901.27
2023-04-17T06:15:52.575Z,100902.81
2023-04-17T06:18:23.527Z,100904.18
2023-04-17T06:20:54.449Z,100900.77
2023-04-17T06:23:25.353Z,100905.23
2023-04-17T06:25:57.373Z,100900.59
2023-04-17T06:28:31.063Z,100900.06
2023-04-17T06:31:03.238Z,100900.89
2023-04-17T06:33:34.506Z,100906.70
2023-04-17T06:36:10.862Z,100910.95
2023-04-17T06:38:49.690Z,100906.48
2023-04-17T06:41:21.708Z,100904.73
2023-04-17T06:43:52.545Z,100905.21
2023-04-17T06:46:26.074Z,100906.34
2023-04-17T06:48:59.674Z,100902.66
2023-04-17T06:51:32.600Z,100909.80
2023-04-17T06:54:05.582Z,100918.32
2023-04-17T06:56:40.973Z,100913.11
2023-04-17T06:59:11.985Z,100915.20
2023-04-17T07:01:43.133Z,100911.09
2023-04-17T07:04:14.059Z,100916.95
2023-04-17T07:06:44.924Z,100920.12
2023-04-17T07:09:18.153Z,100921.89
2023-04-17T07:11:48.945Z,100922.11
2023-04-17T07:14:19.784Z,100921.14
2023-04-17T07:16:50.746Z,100920.70
2023-04-17T07:19:22.627Z,100928.85
2023-04-17T07:21:53.468Z,100925.06
2023-04-17T07:24:24.545Z,100931.42
2023-04-17T07:26:57.188Z,100932.29
2023-04-17T07:29:30.582Z,100938.80
2023-04-17T07:32:01.854Z,100940.20
2023-04-17T07:34:34.442Z,100935.73
2023-04-17T07:37:06.243Z,100938.48
2023-04-17T07:39:37.138Z,100936.41
2023-04-17T07:42:10.396Z,100942.88
2023-04-17T07:44:43.681Z,100944.02
2023-04-17T07:47:14.629Z,100946.70
2023-04-17T07:49:49.231Z,100948.17
2023-04-17T07:52:20.309Z,100945.78
2023-04-17T07:54:53.668Z,100950.21
2023-04-17T07:57:26.627Z,100948.58
2023-04-17T07:59:57.710Z,100952.27
2023-04-17T08:02:29.689Z,100950.45
2023-04-17T08:05:02.196Z,100951.91
2023-04-17T08:07:33.234Z,100947.48
2023-04-17T08:10:17.917Z,100950.11
2023-04-17T08:12:51.505Z,100955.39
2023-04-17T08:15:22.538Z,100957.83
2023-04-17T08:17:53.504Z,100963.20
2023-04-17T08:20:25.037Z,100962.20
2023-04-17T08:22:56.119Z,100966.15
2023-04-17T08:25:27.415Z,100969.08
2023-04-17T08:27:59.174Z,100972.68
2023-04-17T08:30:30.070Z,100972.17
2023-04-17T08:33:01.073Z,100973.85
2023-04-17T08:35:32.102Z,100975.30
2023-04-17T08:38:02.908Z,100978.25
2023-04-17T08:40:33.953Z,100980.85
2023-04-17T08:43:06.293Z,100976.96
2023-04-17T08:45:41.570Z,100971.48
2023-04-17T08:48:13.652Z,100976.21
2023-04-17T08:50:47.695Z,100979.45
2023-04-17T08:53:18.980Z,100985.05
2023-04-17T08:55:50.849Z,100981.63
2023-04-17T08:58:28.451Z,100982.14
2023-04-17T09:01:12.641Z,100986.39
2023-04-17T09:03:45.294Z,100985.89
2023-04-17T09:06:17.134Z,100986.14
2023-04-17T09:08:59.571Z,100982.13
2023-04-17T09:11:30.741Z,100981.65
2023-04-17T09:14:01.821Z,100980.58
2023-04-17T09:16:37.294Z,100983.17
2023-04-17T09:19:16.711Z,100989.39
2023-04-17T09:21:47.619Z,100989.09
2023-04-17T09:24:33.194Z,100990.08
2023-04-17T09:27:23.005Z,100992.38
2023-04-17T09:30:02.761Z,100991.30
2023-04-17T09:32:34.948Z,100990.75
2023-04-17T09:35:06.881Z,100988.40
2023-04-17T09:37:53.409Z,100988.66
2023-04-17T09:40:26.056Z,101002.34
2023-04-17T09:42:59.358Z,101002.88
2023-04-17T09:45:35.466Z,101005.32
2023-04-17T09:48:08.504Z,101006.32
2023-04-17T09:50:40.376Z,101002.12
2023-04-17T09:53:11.568Z,100998.19
2023-04-17T09:55:46.238Z,100997.99
2023-04-17T09:58:19.179Z,100997.41
2023-04-17T10:00:50.340Z,100995.29
2023-04-17T10:03:22.049Z,100990.89
2023-04-17T10:05:54.217Z,100991.06
2023-04-17T10:08:26.465Z,100990.95
2023-04-17T10:11:07.882Z,100991.16
2023-04-17T10:13:42.934Z,100998.61
2023-04-17T10:16:14.056Z,101007.52
2023-04-17T10:18:45.041Z,101003.38
2023-04-17T10:21:26.124Z,101002.17
2023-04-17T10:23:57.054Z,101001.41
2023-04-17T10:26:38.957Z,101002.17
2023-04-17T10:29:10.694Z,101004.90
2023-04-17T10:32:28.769Z,100995.88
2023-04-17T10:35:05.883Z,100999.84
2023-04-17T10:38:07.050Z,100998.91
2023-04-17T10:40:40.085Z,101000.46
2023-04-17T10:43:17.358Z,100993.15
2023-04-17T10:46:06.016Z,100992.17
2023-04-17T10:48:40.851Z,100986.11
2023-04-17T10:51:41.998Z,100987.85
2023-04-17T10:54:15.759Z,100985.98
2023-04-17T10:56:48.594Z,100988.90
2023-04-17T10:59:22.745Z,100984.73
2023-04-17T11:02:05.021Z,100984.19
2023-04-17T11:04:38.394Z,100985.55
2023-04-17T11:07:09.359Z,100982.18
2023-04-17T11:09:41.292Z,100976.41
2023-04-17T11:12:13.154Z,100979.92
2023-04-17T11:14:44.264Z,100977.67
2023-04-17T11:17:15.198Z,100981.73
2023-04-17T11:19:48.168Z,100980.36
2023-04-17T11:22:19.798Z,100980.45
2023-04-17T11:24:53.197Z,100978.91
2023-04-17T11:27:25.133Z,100980.50
2023-04-17T11:29:55.964Z,100980.74
2023-04-17T11:32:26.937Z,100975.98
2023-04-17T11:35:00.240Z,100983.30
2023-04-17T11:37:31.258Z,100983.77
2023-04-17T11:40:13.590Z,100980.36
2023-04-17T11:42:48.560Z,100983.67
2023-04-17T11:45:21.828Z,100976.39
2023-04-17T11:47:55.886Z,100982.98
2023-04-17T11:50:38.334Z,100981.27
2023-04-17T11:53:09.436Z,100979.59
2023-04-17T11:55:40.225Z,100977.41
2023-04-17T11:58:12.979Z,100976.39
2023-04-17T12:00:45.610Z,100983.27
2023-04-17T12:03:38.986Z,100980.94
2023-04-17T12:06:11.869Z,100976.52
2023-04-17T12:08:50.670Z,100979.52
2023-04-17T12:11:33.086Z,100980.27
2023-04-17T12:14:05.357Z,100984.23
2023-04-17T12:16:37.840Z,100981.77
2023-04-17T12:19:09.293Z,100985.03
2023-04-17T12:21:41.056Z,100987.55
2023-04-17T12:24:12.173Z,100985.45
2023-04-17T12:26:50.267Z,100984.45
2023-04-17T12:29:29.544Z,100987.89
2023-04-17T12:32:08.153Z,100989.84
2023-04-17T12:34:39.372Z,100990.42
2023-04-17T12:37:12.547Z,100991.02
2023-04-17T12:39:44.906Z,100995.98
2023-04-17T12:42:16.635Z,100996.87
2023-04-17T12:44:48.462Z,100994.48
2023-04-17T12:47:22.512Z,100994.52
2023-04-17T12:49:56.486Z,100997.33
2023-04-17T12:52:27.435Z,100995.96
2023-04-17T12:55:00.233Z,100994.13
2023-04-17T12:57:31.630Z,100992.20
2023-04-17T13:00:09.537Z,100996.34
2023-04-17T13:02:43.343Z,100999.98
2023-04-17T13:05:14.400Z,101004.89
2023-04-17T13:07:46.314Z,101002.98
2023-04-17T13:10:17.155Z,101004.67
2023-04-17T13:12:50.695Z,100996.30
2023-04-17T13:15:21.955Z,101001.13
2023-04-17T13:17:52.862Z,100999.45
2023-04-17T13:20:23.937Z,100997.02
2023-04-17T13:22:55.599Z,100991.98
2023-04-17T13:25:30.301Z,100987.84
2023-04-17T13:28:01.254Z,100990.14
2023-04-17T13:30:33.697Z,100989.15
2023-04-17T13:33:04.848Z,100986.80
2023-04-17T13:35:44.250Z,100982.54
2023-04-17T13:38:15.257Z,100988.42
2023-04-17T13:40:46.978Z,100986.41
2023-04-17T13:43:34.773Z,100985.81
2023-04-17T13:46:06.197Z,100987.64
2023-04-17T13:48:37.233Z,100990.02
2023-04-17T13:51:16.849Z,100997.74
2023-04-17T13:53:52.388Z,100999.02
2023-04-17T13:56:24.625Z,101001.55
2023-04-17T13:58:55.554Z,101001.21
2023-04-17T14:01:27.005Z,101005.32
2023-04-17T14:06:32.376Z,100999.08
2023-04-17T14:09:03.456Z,100998.85
2023-04-17T14:11:34.462Z,100995.55
2023-04-17T14:14:29.490Z,100997.70
2023-04-17T14:17:04.298Z,100995.36
2023-04-17T14:19:35.600Z,100993.52
2023-04-17T14:22:06.646Z,100991.27
2023-04-17T14:24:37.595Z,100989.98
2023-04-17T14:27:08.452Z,100989.15
2023-04-17T14:29:39.576Z,100995.58
2023-04-17T14:32:10.380Z,100988.73
2023-04-17T14:34:41.172Z,100988.28
2023-04-17T14:37:14.314Z,100991.41
2023-04-17T14:39:45.133Z,100993.02
2023-04-17T14:42:15.921Z,100996.06
2023-04-17T14:44:47.204Z,100990.68
2023-04-17T14:47:18.040Z,100991.48
2023-04-17T14:49:48.943Z,100995.32
2023-04-17T14:52:22.206Z,100995.55
2023-04-17T14:54:53.099Z,100999.04
2023-04-17T14:57:25.060Z,100997.59
2023-04-17T14:59:56.102Z,100998.15
2023-04-17T15:02:27.007Z,100994.75
2023-04-17T15:05:01.407Z,101000.34
2023-04-17T15:07:32.411Z,100997.85
2023-04-17T15:10:03.286Z,100999.79
2023-04-17T15:12:34.320Z,101004.60
2023-04-17T15:15:06.415Z,100997.90
2023-04-17T15:17:39.008Z,101004.89
2023-04-17T15:20:13.557Z,101005.40
2023-04-17T15:22:45.828Z,101010.60
2023-04-17T15:25:17.223Z,101004.44
2023-04-17T15:27:48.203Z,101005.43
2023-04-17T15:30:19.289Z,101008.89
2023-04-17T15:32:51.557Z,101003.30
2023-04-17T15:35:22.464Z,101002.55
2023-04-17T15:37:53.574Z,101003.80
2023-04-17T15:40:27.085Z,101001.58
2023-04-17T15:42:57.978Z,101004.15
2023-04-17T15:45:29.409Z,101000.40
2023-04-17T15:48:01.193Z,101001.79
2023-04-17T15:50:33.299Z,101003.50
2023-04-17T15:53:07.067Z,100998.13
2023-04-17T15:55:38.644Z,101004.09
2023-04-17T15:58:09.672Z,101005.27
2023-04-17T16:00:40.523Z,101004.02
2023-04-17T16:03:11.840Z,101007.30
2023-04-17T16:05:47.859Z,101009.20
2023-04-17T16:08:18.722Z,101010.96
2023-04-17T16:10:49.653Z,101012.70
2023-04-17T16:13:20.621Z,101013.17
2023-04-17T16:15:51.977Z,101008.13
2023-04-17T16:18:22.850Z,101017.36
2023-04-17T16:20:56.496Z,101014.89
2023-04-17T16:23:27.329Z,101019.94
2023-04-17T16:25:58.210Z,101015.69
2023-04-17T16:28:29.108Z,101021.39
2023-04-17T16:31:00.372Z,101024.38
2023-04-17T16:33:34.371Z,101023.58
2023-04-17T16:36:10.327Z,101027.60
2023-04-17T16:38:41.233Z,101037.30
2023-04-17T16:41:12.268Z,101032.43
2023-04-17T16:43:48.782Z,101028.36
2023-04-17T16:46:35.407Z,101037.16
2023-04-17T16:49:16.430Z,101040.64
2023-04-17T16:51:52.906Z,101040.54
2023-04-17T16:54:23.818Z,101045.58
2023-04-17T16:56:55.979Z,101045.63
2023-04-17T16:59:26.923Z,101048.94
2023-04-17T17:01:59.081Z,101051.52
2023-04-17T17:04:42.086Z,101053.27
2023-04-17T17:07:13.003Z,101053.83
2023-04-17T17:09:43.922Z,101059.00
2023-04-17T17:12:14.792Z,101059.71
2023-04-17T17:14:45.754Z,101064.89
2023-04-17T17:17:16.525Z,101067.48
2023-04-17T17:19:47.555Z,101066.27
2023-04-17T17:22:18.408Z,101067.98
2023-04-17T17:24:49.218Z,101070.90
2023-04-17T17:27:20.521Z,101074.70
2023-04-17T17:30:00.666Z,101074.73
2023-04-17T17:32:31.713Z,101074.10
2023-04-17T17:35:02.856Z,101072.95
2023-04-17T17:37:34.878Z,101075.89
2023-04-17T17:40:13.484Z,101084.66
2023-04-17T17:42:45.375Z,101088.30
2023-04-17T17:45:16.137Z,101086.43
2023-04-17T17:47:46.937Z,101090.75
2023-04-17T17:50:17.698Z,101100.36
2023-04-17T17:52:48.623Z,101092.84
2023-04-17T17:55:19.785Z,101094.58
2023-04-17T17:57:50.879Z,101093.41
2023-04-17T18:00:22.153Z,101097.71
2023-04-17T18:02:53.170Z,101099.93
2023-04-17T18:05:24.499Z,101104.74
2023-04-17T18:07:55.564Z,101104.76
2023-04-17T18:10:26.310Z,101110.59
2023-04-17T18:12:57.075Z,101111.63
2023-04-17T18:15:27.886Z,101110.59
2023-04-17T18:17:58.668Z,101110.26
2023-04-17T18:20:32.411Z,101110.61
2023-04-17T18:23:03.253Z,101116.77
2023-04-17T18:25:37.713Z,101116.95
2023-04-17T18:28:11.591Z,101126.37
2023-04-17T18:30:45.180Z,101117.30
2023-04-17T18:33:17.647Z,101122.77
2023-04-17T18:35:48.751Z,101126.71
2023-04-17T18:38:19.549Z,101128.77
2023-04-17T18:40:54.794Z,101131.67
2023-04-17T18:43:25.858Z,101132.36
2023-04-17T18:45:58.401Z,101131.84
2023-04-17T18:48:29.473Z,101130.46
2023-04-17T18:51:08.794Z,101128.77
2023-04-17T18:53:41.899Z,101132.86
2023-04-17T18:56:15.277Z,101135.09
2023-04-17T18:58:47.055Z,101133.38
2023-04-17T19:01:21.313Z,101137.99
2023-04-17T19:03:55.043Z,101139.88
2023-04-17T19:06:26.944Z,101139.36
2023-04-17T19:08:58.107Z,101136.45
2023-04-17T19:11:33.669Z,101136.10
2023-04-17T19:14:05.061Z,101139.19
2023-04-17T19:16:36.218Z,101138.00
2023-04-17T19:19:08.466Z,101136.29
2023-04-17T19:21:41.280Z,101135.77
2023-04-17T19:24:15.100Z,101140.73
2023-04-17T19:26:46.027Z,101141.59
2023-04-17T19:29:17.448Z,101139.86
2023-04-17T19:31:48.355Z,101143.80
2023-04-17T19:34:19.867Z,101141.91
2023-04-17T19:36:55.268Z,101135.59
2023-04-17T19:39:29.534Z,101148.92
2023-04-17T19:42:01.384Z,101145.15
2023-04-17T19:44:32.351Z,101144.98
2023-04-17T19:47:04.888Z,101146.69
2023-04-17T19:49:35.654Z,101144.80
2023-04-17T19:52:06.691Z,101141.55
2023-04-17T19:54:37.614Z,101145.65
2023-04-17T19:57:08.320Z,101144.63
2023-04-17T19:59:39.013Z,101144.80
2023-04-17T20:02:09.840Z,101143.95
2023-04-17T20:04:40.685Z,101138.81
2023-04-17T20:07:11.392Z,101142.05
2023-04-17T20:09:42.116Z,101141.55
2023-04-17T20:12:12.755Z,101140.17
2023-04-17T20:14:43.429Z,101142.91
2023-04-17T20:17:14.437Z,101143.91
2023-04-17T20:19:45.333Z,101144.41
2023-04-17T20:22:17.575Z,101151.08
2023-04-17T20:24:51.457Z,101149.87
2023-04-17T20:27:22.149Z,101146.44
2023-04-17T20:29:52.881Z,101152.58
2023-04-17T20:32:24.521Z,101152.23
2023-04-17T20:34:55.285Z,101154.45
2023-04-17T20:37:25.952Z,101157.16
2023-04-17T20:39:57.701Z,101151.52
2023-04-17T20:42:28.573Z,101149.44
2023-04-17T20:44:59.730Z,101151.15
2023-04-17T20:47:30.450Z,101151.51
2023-04-17T20:50:03.299Z,101152.02
2023-04-17T20:52:34.622Z,101158.17
2023-04-17T20:55:06.715Z,101155.95
2023-04-17T20:57:37.952Z,101158.85
2023-04-17T21:00:12.489Z,101160.40
2023-04-17T21:02:45.908Z,101160.41
2023-04-17T21:05:16.836Z,101167.41
2023-04-17T21:07:49.486Z,101166.88
2023-04-17T21:10:22.304Z,101171.83
2023-04-17T21:12:52.999Z,101172.16
2023-04-17T21:15:24.260Z,101165.16
2023-04-17T21:17:55.099Z,101172.34
2023-04-17T21:20:27.112Z,101175.25
2023-04-17T21:22:58.228Z,101178.64
2023-04-17T21:25:29.290Z,101179.30
2023-04-17T21:27:59.966Z,101181.31
2023-04-17T21:30:30.706Z,101178.55
2023-04-17T21:33:01.384Z,101180.61
2023-04-17T21:35:32.135Z,101182.30
2023-04-17T21:38:02.919Z,101182.80
2023-04-17T21:40:33.928Z,101183.65
2023-04-17T21:43:05.426Z,101181.41
2023-04-17T21:45:36.147Z,101177.81
2023-04-17T21:48:06.839Z,101180.17
2023-04-17T21:50:37.539Z,101177.42
2023-04-17T21:53:08.247Z,101175.36
2023-04-17T21:55:40.340Z,101183.91
2023-04-17T21:58:11.031Z,101178.10
2023-04-17T22:00:41.861Z,101178.97
2023-04-17T22:03:12.680Z,101182.40
2023-04-17T22:05:43.490Z,101181.54
2023-04-17T22:08:14.299Z,101179.80
2023-04-17T22:10:45.091Z,101180.81
2023-04-17T22:13:16.186Z,101179.95
2023-04-17T22:15:48.658Z,101184.21
2023-04-17T22:18:19.536Z,101186.41
2023-04-17T22:21:43.315Z,101187.40
2023-04-17T22:25:25.358Z,101178.33
2023-04-17T22:29:07.859Z,101183.61
2023-04-17T22:32:49.683Z,101183.78
2023-04-17T22:36:31.840Z,101186.67
2023-04-17T22:40:15.120Z,101191.23
2023-04-17T22:43:57.314Z,101191.52
2023-04-17T22:47:39.617Z,101194.58
2023-04-17T22:51:22.004Z,101194.59
2023-04-17T22:55:03.917Z,101193.04
2023-04-17T22:58:45.785Z,101193.38
2023-04-17T23:02:27.999Z,101194.03
2023-04-17T23:06:10.050Z,101192.48
2023-04-17T23:09:23.170Z,101185.11
2023-04-17T23:11:54.115Z,101184.40
2023-04-17T23:14:26.292Z,101185.92
2023-04-17T23:16:56.949Z,101186.21
2023-04-17T23:19:27.779Z,101184.50
2023-04-17T23:21:59.778Z,101184.52
2023-04-17T23:24:33.301Z,101180.94
2023-04-17T23:27:04.027Z,101182.63
2023-04-17T23:29:34.885Z,101182.44
2023-04-17T23:32:07.410Z,101182.79
2023-04-17T23:34:38.618Z,101184.67
2023-04-17T23:37:09.305Z,101182.94
2023-04-17T23:39:40.086Z,101180.89
2023-04-17T23:42:10.852Z,101179.35
2023-04-17T23:44:41.585Z,101183.79
2023-04-17T23:47:13.755Z,101181.88
2023-04-17T23:49:44.575Z,101184.27
2023-04-17T23:52:15.311Z,101184.60
2023-04-17T23:54:46.011Z,101185.45
2023-04-17T23:57:16.803Z,101187.19
2023-04-17T23:59:47.829Z,101180.52
